createdAt,value
2018-03-27T00:02:02.171Z,44.30
2018-03-27T00:04:30.458Z,41.88
2018-03-27T00:06:58.050Z,41.15
2018-03-27T00:09:25.600Z,40.42
2018-03-27T00:11:53.093Z,42.17
2018-03-27T00:14:20.669Z,42.67
2018-03-27T00:16:48.186Z,43.10
2018-03-27T00:19:15.719Z,41.60
2018-03-27T00:21:43.990Z,39.55
2018-03-27T00:24:12.336Z,37.92
2018-03-27T00:26:51.775Z,42.42
2018-03-27T00:29:31.124Z,39.88
2018-03-27T00:32:10.437Z,37.88
2018-03-27T00:34:49.751Z,36.83
2018-03-27T00:37:29.228Z,36.00
2018-03-27T00:40:08.462Z,36.35
2018-03-27T00:45:33.939Z,34.22
2018-03-27T00:48:01.471Z,35.67
2018-03-27T00:50:29.034Z,38.50
2018-03-27T00:52:57.343Z,35.42
2018-03-27T00:55:24.878Z,35.58
2018-03-27T00:57:53.155Z,33.22
2018-03-27T01:00:21.474Z,35.38
2018-03-27T01:02:49.011Z,32.63
2018-03-27T01:05:17.314Z,32.95
2018-03-27T01:07:44.842Z,33.38
2018-03-27T01:10:13.166Z,33.75
2018-03-27T01:12:40.718Z,34.40
2018-03-27T01:15:08.247Z,32.88
2018-03-27T01:17:35.761Z,33.95
2018-03-27T01:20:03.291Z,31.55
2018-03-27T01:22:30.835Z,31.90
2018-03-27T01:24:58.366Z,32.83
2018-03-27T01:27:26.650Z,33.03
2018-03-27T01:29:54.922Z,31.30
2018-03-27T01:32:23.210Z,32.95
2018-03-27T01:34:51.495Z,32.40
2018-03-27T01:37:19.782Z,31.02
2018-03-27T01:39:47.302Z,37.13
2018-03-27T01:42:14.831Z,30.70
2018-03-27T01:44:42.338Z,31.17
2018-03-27T01:47:10.627Z,32.05
2018-03-27T01:49:38.901Z,33.10
2018-03-27T01:52:07.199Z,30.92
2018-03-27T01:54:34.710Z,31.70
2018-03-27T01:57:02.232Z,32.92
2018-03-27T01:59:29.742Z,33.92
2018-03-27T02:01:57.282Z,30.23
2018-03-27T02:04:24.797Z,32.30
2018-03-27T02:06:52.336Z,32.38
2018-03-27T02:09:20.617Z,33.40
2018-03-27T02:11:53.717Z,32.72
2018-03-27T02:14:26.890Z,32.63
2018-03-27T02:17:00.887Z,34.38
2018-03-27T02:19:33.959Z,34.28
2018-03-27T02:22:00.997Z,33.90
2018-03-27T02:24:31.902Z,34.17
2018-03-27T02:26:59.432Z,35.22
2018-03-27T02:29:26.950Z,30.42
2018-03-27T02:31:54.462Z,32.60
2018-03-27T02:34:22.749Z,32.88
2018-03-27T02:36:51.015Z,30.48
2018-03-27T02:39:19.308Z,32.80
2018-03-27T02:41:46.810Z,32.95
2018-03-27T02:44:14.329Z,31.58
2018-03-27T02:46:41.863Z,34.50
2018-03-27T02:49:09.388Z,35.22
2018-03-27T02:51:36.933Z,35.20
2018-03-27T02:54:04.467Z,32.95
2018-03-27T02:56:32.027Z,36.15
2018-03-27T02:59:00.351Z,29.37
2018-03-27T03:01:27.855Z,35.97
2018-03-27T03:03:56.153Z,34.38
2018-03-27T03:06:23.662Z,33.90
2018-03-27T03:08:51.210Z,34.85
2018-03-27T03:11:18.713Z,33.17
2018-03-27T03:13:47.011Z,33.40
2018-03-27T03:16:14.530Z,35.08
2018-03-27T03:18:42.063Z,37.30
2018-03-27T03:21:09.567Z,32.65
2018-03-27T03:23:37.860Z,32.08
2018-03-27T03:26:06.135Z,30.75
2018-03-27T03:28:34.406Z,32.47
2018-03-27T03:31:02.698Z,34.05
2018-03-27T03:33:30.204Z,31.55
2018-03-27T03:35:57.771Z,32.45
2018-03-27T03:38:25.274Z,32.00
2018-03-27T03:40:53.554Z,31.15
2018-03-27T03:43:21.073Z,32.30
2018-03-27T03:45:48.606Z,32.50
2018-03-27T03:48:16.109Z,30.30
2018-03-27T03:50:44.411Z,32.50
2018-03-27T03:53:12.703Z,29.30
2018-03-27T03:55:40.245Z,34.40
2018-03-27T03:58:08.507Z,34.53
2018-03-27T04:00:36.793Z,33.90
2018-03-27T04:03:05.058Z,30.37
2018-03-27T04:05:32.591Z,31.92
2018-03-27T04:08:00.107Z,33.00
2018-03-27T04:10:27.635Z,34.08
2018-03-27T04:12:55.907Z,32.03
2018-03-27T04:15:23.435Z,32.95
2018-03-27T04:17:50.946Z,32.33
2018-03-27T04:20:19.224Z,32.15
2018-03-27T04:22:47.495Z,29.77
2018-03-27T04:25:15.797Z,32.58
2018-03-27T04:27:43.304Z,28.87
2018-03-27T04:30:10.839Z,32.03
2018-03-27T04:32:38.354Z,35.65
2018-03-27T04:35:06.638Z,37.10
2018-03-27T04:37:34.921Z,36.60
2018-03-27T04:40:02.460Z,39.30
2018-03-27T04:42:29.958Z,38.53
2018-03-27T04:44:57.492Z,36.22
2018-03-27T04:47:25.770Z,37.67
2018-03-27T04:49:54.058Z,36.95
2018-03-27T04:52:21.566Z,37.10
2018-03-27T04:54:49.074Z,34.92
2018-03-27T04:57:17.363Z,33.83
2018-03-27T04:59:44.888Z,37.72
2018-03-27T05:02:12.405Z,35.97
2018-03-27T05:04:39.921Z,32.20
2018-03-27T05:07:08.206Z,32.95
2018-03-27T05:09:36.481Z,33.90
2018-03-27T05:12:04.838Z,34.28
2018-03-27T05:14:32.345Z,36.88
2018-03-27T05:16:59.886Z,34.90
2018-03-27T05:19:28.158Z,36.78
2018-03-27T05:21:56.446Z,35.60
2018-03-27T05:24:23.985Z,37.63
2018-03-27T05:26:52.283Z,36.60
2018-03-27T05:29:19.792Z,34.55
2018-03-27T05:31:47.320Z,34.90
2018-03-27T05:34:14.842Z,37.00
2018-03-27T05:36:43.164Z,36.42
2018-03-27T05:39:10.750Z,37.40
2018-03-27T05:41:38.359Z,34.90
2018-03-27T05:44:06.630Z,45.75
2018-03-27T05:46:34.925Z,37.95
2018-03-27T05:49:03.201Z,37.28
2018-03-27T05:51:30.738Z,35.80
2018-03-27T05:53:59.012Z,34.97
2018-03-27T05:56:27.306Z,40.30
2018-03-27T05:58:55.586Z,37.15
2018-03-27T06:01:23.885Z,33.42
2018-03-27T06:03:51.412Z,35.13
2018-03-27T06:06:18.954Z,37.22
2018-03-27T06:08:46.458Z,37.13
2018-03-27T06:11:14.040Z,38.47
2018-03-27T06:13:41.527Z,35.25
2018-03-27T06:16:09.038Z,37.50
2018-03-27T06:18:36.565Z,36.83
2018-03-27T06:21:04.857Z,35.55
2018-03-27T06:23:33.142Z,37.05
2018-03-27T06:26:00.658Z,36.53
2018-03-27T06:28:28.174Z,37.38
2018-03-27T06:30:55.687Z,35.13
2018-03-27T06:33:23.225Z,34.80
2018-03-27T06:35:50.765Z,34.97
2018-03-27T06:38:18.302Z,33.42
2018-03-27T06:40:46.575Z,35.63
2018-03-27T06:43:14.869Z,35.38
2018-03-27T06:45:42.382Z,37.20
2018-03-27T06:48:09.909Z,35.42
2018-03-27T06:50:37.419Z,35.03
2018-03-27T06:53:05.718Z,37.67
2018-03-27T06:55:33.267Z,34.17
2018-03-27T06:58:01.546Z,35.38
2018-03-27T07:00:29.826Z,35.35
2018-03-27T07:02:58.119Z,35.65
2018-03-27T07:05:25.716Z,35.35
2018-03-27T07:07:53.235Z,36.80
2018-03-27T07:10:20.800Z,34.55
2018-03-27T07:12:48.414Z,33.75
2018-03-27T07:15:16.029Z,35.00
2018-03-27T07:17:44.349Z,32.72
2018-03-27T07:20:11.891Z,32.08
2018-03-27T07:22:39.406Z,30.85
2018-03-27T07:25:07.679Z,31.55
2018-03-27T07:27:35.949Z,33.30
2018-03-27T07:30:04.250Z,30.77
2018-03-27T07:32:32.665Z,31.33
2018-03-27T07:35:00.186Z,33.60
2018-03-27T07:37:27.714Z,32.28
2018-03-27T07:40:02.139Z,30.05
2018-03-27T07:42:29.656Z,31.05
2018-03-27T07:44:57.182Z,28.08
2018-03-27T07:47:25.458Z,28.15
2018-03-27T07:49:53.750Z,30.15
2018-03-27T07:52:21.266Z,27.70
2018-03-27T07:54:48.782Z,28.95
2018-03-27T07:57:16.286Z,27.30
2018-03-27T07:59:43.815Z,26.92
2018-03-27T08:02:11.333Z,28.40
2018-03-27T08:04:39.614Z,27.15
2018-03-27T08:07:07.880Z,26.92
2018-03-27T08:09:36.167Z,27.90
2018-03-27T08:12:04.438Z,25.70
2018-03-27T08:14:32.730Z,27.33
2018-03-27T08:17:00.234Z,22.42
2018-03-27T08:19:27.771Z,25.70
2018-03-27T08:21:55.274Z,22.50
2018-03-27T08:24:22.839Z,24.95
2018-03-27T08:26:50.324Z,23.10
2018-03-27T08:29:18.688Z,23.25
2018-03-27T08:31:46.157Z,21.98
2018-03-27T08:34:14.438Z,21.98
2018-03-27T08:36:42.714Z,21.30
2018-03-27T08:39:11.046Z,22.35
2018-03-27T08:41:38.575Z,18.00
2018-03-27T08:44:06.094Z,20.17
2018-03-27T08:46:33.607Z,20.73
2018-03-27T08:49:01.142Z,19.60
2018-03-27T08:51:28.644Z,18.62
2018-03-27T08:53:56.167Z,20.35
2018-03-27T08:56:23.741Z,23.45
2018-03-27T08:58:52.032Z,23.30
2018-03-27T09:01:19.534Z,22.33
2018-03-27T09:03:47.039Z,25.02
2018-03-27T09:06:14.559Z,24.58
2018-03-27T09:08:42.830Z,22.42
2018-03-27T09:11:10.361Z,25.92
2018-03-27T09:13:37.885Z,22.45
2018-03-27T09:16:05.414Z,20.33
2018-03-27T09:18:32.915Z,21.65
2018-03-27T09:21:00.444Z,24.40
2018-03-27T09:23:29.497Z,21.95
2018-03-27T09:25:57.187Z,18.65
2018-03-27T09:28:24.694Z,19.75
2018-03-27T09:30:54.372Z,21.40
2018-03-27T09:33:22.652Z,16.10
2018-03-27T09:35:51.252Z,19.52
2018-03-27T09:38:19.522Z,18.40
2018-03-27T09:40:47.051Z,17.48
2018-03-27T09:43:14.558Z,15.55
2018-03-27T09:45:42.533Z,15.90
2018-03-27T09:48:10.474Z,17.95
2018-03-27T09:50:40.206Z,17.33
2018-03-27T09:53:07.723Z,17.55
2018-03-27T09:55:36.210Z,17.35
2018-03-27T09:58:03.821Z,18.10
2018-03-27T10:00:36.954Z,15.65
2018-03-27T10:03:04.479Z,12.88
2018-03-27T10:05:32.003Z,11.90
2018-03-27T10:08:00.277Z,13.38
2018-03-27T10:10:29.966Z,12.02
2018-03-27T10:12:58.254Z,14.80
2018-03-27T10:15:25.814Z,14.82
2018-03-27T10:17:54.103Z,10.82
2018-03-27T10:20:22.439Z,11.30
2018-03-27T10:22:50.008Z,10.68
2018-03-27T10:25:17.519Z,12.55
2018-03-27T10:27:45.153Z,12.10
2018-03-27T10:30:12.662Z,15.27
2018-03-27T10:32:40.189Z,16.77
2018-03-27T10:35:08.465Z,13.88
2018-03-27T10:37:36.762Z,12.68
2018-03-27T10:40:04.275Z,14.25
2018-03-27T10:42:31.818Z,12.35
2018-03-27T10:44:59.326Z,14.40
2018-03-27T10:47:27.634Z,14.20
2018-03-27T10:49:55.162Z,14.80
2018-03-27T10:52:23.456Z,16.20
2018-03-27T10:54:50.964Z,15.70
2018-03-27T10:57:18.814Z,15.10
2018-03-27T10:59:48.374Z,17.08
2018-03-27T11:02:16.670Z,15.88
2018-03-27T11:04:44.175Z,19.10
2018-03-27T11:07:11.715Z,16.48
2018-03-27T11:09:39.230Z,17.67
2018-03-27T11:12:07.533Z,14.73
2018-03-27T11:14:35.046Z,13.13
2018-03-27T11:17:02.575Z,13.60
2018-03-27T11:19:30.090Z,13.02
2018-03-27T11:21:58.402Z,13.25
2018-03-27T11:24:25.908Z,16.75
2018-03-27T11:26:54.219Z,17.73
2018-03-27T11:29:21.805Z,15.25
2018-03-27T11:31:50.059Z,12.88
2018-03-27T11:34:17.571Z,13.95
2018-03-27T11:36:45.129Z,13.32
2018-03-27T11:39:32.339Z,11.20
2018-03-27T11:41:59.968Z,10.15
2018-03-27T11:44:27.478Z,9.70
2018-03-27T11:46:55.045Z,8.40
2018-03-27T11:49:22.570Z,9.75
2018-03-27T11:51:50.083Z,11.35
2018-03-27T11:54:18.375Z,11.02
2018-03-27T11:56:45.893Z,12.35
2018-03-27T11:59:13.434Z,11.25
2018-03-27T12:01:40.949Z,12.88
2018-03-27T12:04:09.244Z,12.68
2018-03-27T12:06:37.373Z,11.65
2018-03-27T12:09:04.914Z,12.15
2018-03-27T12:11:32.421Z,12.27
2018-03-27T12:14:00.771Z,11.50
2018-03-27T12:16:28.298Z,10.73
2018-03-27T12:18:55.840Z,11.43
2018-03-27T12:21:23.371Z,10.60
2018-03-27T12:23:51.806Z,10.48
2018-03-27T12:26:19.358Z,11.07
2018-03-27T12:28:46.896Z,9.75
2018-03-27T12:31:14.442Z,9.25
2018-03-27T12:33:41.984Z,9.93
2018-03-27T12:36:09.495Z,8.77
2018-03-27T12:38:37.020Z,9.02
2018-03-27T12:41:05.303Z,11.52
2018-03-27T12:43:33.023Z,8.27
2018-03-27T12:46:01.336Z,9.45
2018-03-27T12:48:29.846Z,9.50
2018-03-27T12:50:57.357Z,9.77
2018-03-27T12:53:24.888Z,9.50
2018-03-27T12:55:52.406Z,9.50
2018-03-27T12:58:20.698Z,8.85
2018-03-27T13:00:48.223Z,9.95
2018-03-27T13:03:16.526Z,8.82
2018-03-27T13:05:44.043Z,9.45
2018-03-27T13:08:11.591Z,10.35
2018-03-27T13:10:39.116Z,10.50
2018-03-27T13:13:06.678Z,9.63
2018-03-27T13:15:34.222Z,8.80
2018-03-27T13:18:02.523Z,9.32
2018-03-27T13:20:30.063Z,9.70
2018-03-27T13:22:58.336Z,8.52
2018-03-27T13:25:26.638Z,8.15
2018-03-27T13:27:54.155Z,9.98
2018-03-27T13:30:21.688Z,9.80
2018-03-27T13:32:49.219Z,10.20
2018-03-27T13:35:16.754Z,9.70
2018-03-27T13:37:45.187Z,10.55
2018-03-27T13:40:12.760Z,10.20
2018-03-27T13:42:40.289Z,9.75
2018-03-27T13:45:07.829Z,9.20
2018-03-27T13:47:36.124Z,9.88
2018-03-27T13:50:03.672Z,9.43
2018-03-27T13:52:31.185Z,10.07
2018-03-27T13:54:58.730Z,10.73
2018-03-27T13:57:26.245Z,9.45
2018-03-27T13:59:53.786Z,10.13
2018-03-27T14:02:22.084Z,9.77
2018-03-27T14:04:49.614Z,10.63
2018-03-27T14:07:17.137Z,10.05
2018-03-27T14:09:44.706Z,10.45
2018-03-27T14:12:12.227Z,10.40
2018-03-27T14:14:39.760Z,9.48
2018-03-27T14:17:08.055Z,9.73
2018-03-27T14:19:36.346Z,9.52
2018-03-27T14:22:03.890Z,9.90
2018-03-27T14:24:32.182Z,10.05
2018-03-27T14:26:59.690Z,10.20
2018-03-27T14:29:27.215Z,10.18
2018-03-27T14:31:54.747Z,9.90
2018-03-27T14:34:23.116Z,9.25
2018-03-27T14:36:50.719Z,9.23
2018-03-27T14:39:18.230Z,10.18
2018-03-27T14:41:46.534Z,10.95
2018-03-27T14:44:14.073Z,9.30
2018-03-27T14:46:41.630Z,9.05
2018-03-27T14:49:09.372Z,11.40
2018-03-27T14:51:36.913Z,9.10
2018-03-27T14:54:04.426Z,10.00
2018-03-27T14:56:32.730Z,9.00
2018-03-27T14:59:00.295Z,9.95
2018-03-27T15:01:27.835Z,9.77
2018-03-27T15:03:56.115Z,9.75
2018-03-27T15:06:24.416Z,10.00
2018-03-27T15:08:51.935Z,10.98
2018-03-27T15:11:20.236Z,9.73
2018-03-27T15:13:48.513Z,9.73
2018-03-27T15:16:16.042Z,8.60
2018-03-27T15:18:43.558Z,8.95
2018-03-27T15:21:11.095Z,10.25
2018-03-27T15:23:38.626Z,10.00
2018-03-27T15:26:06.930Z,11.20
2018-03-27T15:28:35.201Z,9.80
2018-03-27T15:31:03.489Z,11.07
2018-03-27T15:33:31.029Z,9.82
2018-03-27T15:35:58.566Z,11.12
2018-03-27T15:38:26.096Z,9.68
2018-03-27T15:40:53.617Z,9.93
2018-03-27T15:43:21.154Z,10.85
2018-03-27T15:45:48.674Z,10.95
2018-03-27T15:48:16.208Z,11.32
2018-03-27T15:50:43.715Z,9.73
2018-03-27T15:53:11.251Z,11.02
2018-03-27T15:55:38.784Z,11.30
2018-03-27T15:58:07.082Z,12.13
2018-03-27T16:00:34.599Z,11.98
2018-03-27T16:03:02.145Z,11.90
2018-03-27T16:05:29.664Z,11.40
2018-03-27T16:07:57.969Z,11.85
2018-03-27T16:10:25.473Z,11.70
2018-03-27T16:12:53.785Z,12.43
2018-03-27T16:15:21.306Z,11.50
2018-03-27T16:17:49.597Z,11.25
2018-03-27T16:20:17.870Z,11.02
2018-03-27T16:22:46.175Z,13.60
2018-03-27T16:25:13.687Z,11.35
2018-03-27T16:27:41.994Z,11.70
2018-03-27T16:30:09.514Z,12.98
2018-03-27T16:32:37.038Z,14.15
2018-03-27T16:35:04.550Z,12.07
2018-03-27T16:37:32.850Z,12.43
2018-03-27T16:40:00.372Z,10.27
2018-03-27T16:42:27.897Z,11.75
2018-03-27T16:44:55.412Z,11.73
2018-03-27T16:47:23.714Z,11.68
2018-03-27T16:49:51.226Z,11.90
2018-03-27T16:52:18.746Z,12.07
2018-03-27T16:54:46.278Z,13.65
2018-03-27T16:57:14.560Z,10.90
2018-03-27T16:59:42.850Z,12.45
2018-03-27T17:02:10.364Z,11.73
2018-03-27T17:04:37.908Z,14.63
2018-03-27T17:07:05.419Z,12.40
2018-03-27T17:09:50.641Z,13.02
2018-03-27T17:12:18.159Z,12.23
2018-03-27T17:14:45.698Z,12.75
2018-03-27T17:17:13.218Z,13.52
2018-03-27T17:19:40.752Z,11.85
2018-03-27T17:22:08.279Z,13.18
2018-03-27T17:24:36.765Z,12.13
2018-03-27T17:27:05.083Z,13.02
2018-03-27T17:29:32.603Z,13.57
2018-03-27T17:32:00.934Z,12.63
2018-03-27T17:34:28.682Z,13.70
2018-03-27T17:36:56.190Z,14.52
2018-03-27T17:39:23.716Z,13.65
2018-03-27T17:41:51.254Z,14.52
2018-03-27T17:44:20.274Z,14.30
2018-03-27T17:46:47.795Z,13.25
2018-03-27T17:49:15.329Z,15.10
2018-03-27T17:51:42.842Z,23.90
2018-03-27T17:54:10.380Z,15.00
2018-03-27T17:56:37.917Z,62.62
2018-03-27T17:59:06.226Z,19.23
2018-03-27T18:01:33.849Z,13.62
2018-03-27T18:04:01.399Z,14.20
2018-03-27T18:06:28.901Z,13.70
2018-03-27T18:08:56.415Z,14.40
2018-03-27T18:11:23.946Z,15.15
2018-03-27T18:13:51.463Z,13.43
2018-03-27T18:16:19.759Z,14.63
2018-03-27T18:18:47.271Z,14.27
2018-03-27T18:21:14.803Z,14.02
2018-03-27T18:23:42.433Z,14.80
2018-03-27T18:26:09.978Z,16.00
2018-03-27T18:28:38.274Z,15.02
2018-03-27T18:31:05.837Z,15.93
2018-03-27T18:33:33.362Z,15.32
2018-03-27T18:36:00.938Z,16.33
2018-03-27T18:38:29.630Z,15.50
2018-03-27T18:40:57.167Z,18.15
2018-03-27T18:43:24.687Z,17.85
2018-03-27T18:45:52.326Z,17.90
2018-03-27T18:48:19.846Z,19.85
2018-03-27T18:50:47.414Z,17.17
2018-03-27T18:53:14.991Z,19.25
2018-03-27T18:55:43.768Z,16.90
2018-03-27T18:58:11.283Z,19.05
2018-03-27T19:00:38.814Z,17.70
2018-03-27T19:03:06.722Z,15.63
2018-03-27T19:05:34.363Z,17.58
2018-03-27T19:08:01.948Z,19.77
2018-03-27T19:10:29.732Z,18.00
2018-03-27T19:12:57.235Z,17.70
2018-03-27T19:15:25.518Z,16.55
2018-03-27T19:17:53.050Z,17.20
2018-03-27T19:20:20.571Z,18.10
2018-03-27T19:22:48.101Z,18.65
2018-03-27T19:25:15.611Z,16.00
2018-03-27T19:27:43.144Z,16.60
2018-03-27T19:30:10.691Z,18.37
2018-03-27T19:32:38.214Z,16.00
2018-03-27T19:35:06.508Z,16.73
2018-03-27T19:37:34.811Z,15.50
2018-03-27T19:40:02.341Z,17.00
2018-03-27T19:42:30.641Z,16.62
2018-03-27T19:44:58.150Z,16.20
2018-03-27T19:47:25.680Z,16.00
2018-03-27T19:49:53.199Z,16.87
2018-03-27T19:52:21.648Z,17.35
2018-03-27T19:54:49.162Z,15.77
2018-03-27T19:57:16.684Z,17.05
2018-03-27T19:59:44.966Z,16.80
2018-03-27T20:02:13.256Z,17.10
2018-03-27T20:04:41.533Z,18.37
2018-03-27T20:07:09.834Z,17.52
2018-03-27T20:09:37.347Z,16.87
2018-03-27T20:12:04.871Z,18.05
2018-03-27T20:14:32.383Z,16.55
2018-03-27T20:17:00.682Z,18.12
2018-03-27T20:19:28.194Z,16.45
2018-03-27T20:21:55.745Z,17.48
2018-03-27T20:24:23.436Z,17.73
2018-03-27T20:26:51.714Z,17.30
2018-03-27T20:29:20.023Z,17.27
2018-03-27T20:31:47.559Z,17.48
2018-03-27T20:34:15.870Z,18.70
2018-03-27T20:36:43.403Z,16.25
2018-03-27T20:39:11.703Z,18.70
2018-03-27T20:41:39.215Z,16.60
2018-03-27T20:44:06.786Z,18.62
2018-03-27T20:46:34.298Z,20.27
2018-03-27T20:49:01.852Z,18.42
2018-03-27T20:51:29.384Z,18.42
2018-03-27T20:53:57.673Z,17.45
2018-03-27T20:56:25.182Z,18.70
2018-03-27T20:58:52.718Z,17.60
2018-03-27T21:01:20.234Z,18.27
2018-03-27T21:03:48.531Z,17.77
2018-03-27T21:06:16.066Z,17.67
2018-03-27T21:08:44.357Z,17.73
2018-03-27T21:11:12.640Z,18.20
2018-03-27T21:13:40.938Z,18.95
2018-03-27T21:16:08.445Z,17.80
2018-03-27T21:18:35.979Z,17.75
2018-03-27T21:21:03.489Z,17.70
2018-03-27T21:23:31.046Z,17.90
2018-03-27T21:25:59.327Z,16.87
2018-03-27T21:28:27.633Z,18.60
2018-03-27T21:30:55.158Z,16.00
2018-03-27T21:33:22.778Z,18.23
2018-03-27T21:35:50.287Z,18.60
2018-03-27T21:38:18.571Z,17.75
2018-03-27T21:40:46.870Z,18.20
2018-03-27T21:43:14.375Z,18.40
2018-03-27T21:45:41.901Z,17.42
2018-03-27T21:48:09.413Z,16.45
2018-03-27T21:50:37.707Z,16.17
2018-03-27T21:53:05.981Z,17.58
2018-03-27T21:55:34.279Z,15.20
2018-03-27T21:58:01.828Z,15.68
2018-03-27T22:00:30.123Z,16.90
2018-03-27T22:02:57.642Z,15.43
2018-03-27T22:05:25.170Z,15.50
2018-03-27T22:07:52.681Z,17.02
2018-03-27T22:10:20.220Z,14.98
2018-03-27T22:12:48.522Z,15.95
2018-03-27T22:15:16.954Z,14.90
2018-03-27T22:17:44.456Z,14.95
2018-03-27T22:20:12.741Z,14.77
2018-03-27T22:22:40.266Z,15.13
2018-03-27T22:25:07.801Z,14.05
2018-03-27T22:27:35.315Z,16.00
2018-03-27T22:30:03.611Z,14.98
2018-03-27T22:32:31.890Z,15.95
2018-03-27T22:34:59.411Z,15.85
2018-03-27T22:37:27.689Z,13.00
2018-03-27T22:39:55.212Z,15.35
2018-03-27T22:42:22.733Z,14.27
2018-03-27T22:44:50.259Z,16.08
2018-03-27T22:47:17.796Z,14.20
2018-03-27T22:49:45.317Z,16.30
2018-03-27T22:52:12.867Z,15.75
2018-03-27T22:54:41.232Z,15.07
2018-03-27T22:57:08.738Z,15.20
2018-03-27T22:59:36.253Z,13.93
2018-03-27T23:02:04.567Z,14.82
2018-03-27T23:04:32.084Z,34.85
2018-03-27T23:06:59.620Z,13.50
2018-03-27T23:09:27.146Z,14.95
2018-03-27T23:11:54.688Z,14.55
2018-03-27T23:14:22.246Z,15.50
2018-03-27T23:16:50.627Z,13.75
2018-03-27T23:19:18.218Z,15.07
2018-03-27T23:21:45.763Z,13.40
2018-03-27T23:24:13.281Z,12.48
2018-03-27T23:26:40.901Z,13.00
2018-03-27T23:29:08.527Z,14.73
2018-03-27T23:31:36.824Z,13.55
2018-03-27T23:34:04.360Z,13.57
2018-03-27T23:36:32.654Z,13.93
2018-03-27T23:39:00.211Z,14.63
2018-03-27T23:41:28.546Z,12.68
2018-03-27T23:43:56.075Z,13.38
2018-03-27T23:46:23.606Z,12.18
2018-03-27T23:48:51.891Z,12.13
2018-03-27T23:51:20.227Z,13.77
2018-03-27T23:53:47.770Z,12.15
2018-03-27T23:56:15.337Z,13.40
2018-03-27T23:58:42.906Z,12.20
